createdAt,value
2022-09-21T00:00:06.843Z,47.39
2022-09-21T00:00:16.842Z,47.39
2022-09-21T00:00:26.841Z,47.30
2022-09-21T00:00:36.842Z,47.30
2022-09-21T00:00:46.864Z,47.30
2022-09-21T00:00:56.875Z,47.30
2022-09-21T00:01:06.910Z,47.39
2022-09-21T00:01:16.917Z,47.39
2022-09-21T00:01:26.897Z,47.39
2022-09-21T00:01:36.873Z,47.30
2022-09-21T00:01:46.833Z,47.30
2022-09-21T00:01:56.903Z,47.30
2022-09-21T00:02:16.939Z,47.39
2022-09-21T00:02:26.846Z,47.39
2022-09-21T00:02:36.909Z,47.30
2022-09-21T00:02:46.839Z,47.30
2022-09-21T00:02:56.825Z,47.30
2022-09-21T00:03:06.823Z,47.39
2022-09-21T00:03:16.825Z,47.39
2022-09-21T00:03:26.824Z,47.39
2022-09-21T00:03:36.819Z,47.50
2022-09-21T00:03:46.818Z,47.39
2022-09-21T00:03:56.827Z,47.39
2022-09-21T00:04:06.965Z,47.39
2022-09-21T00:04:16.816Z,47.39
2022-09-21T00:04:26.814Z,47.39
2022-09-21T00:04:36.817Z,47.30
2022-09-21T00:04:46.809Z,47.30
2022-09-21T00:04:56.811Z,47.30
2022-09-21T00:05:06.812Z,47.30
2022-09-21T00:05:16.810Z,47.30
2022-09-21T00:05:26.805Z,47.19
2022-09-21T00:05:36.808Z,47.09
2022-09-21T00:05:46.806Z,47.09
2022-09-21T00:05:56.806Z,47.19
2022-09-21T00:06:06.800Z,47.19
2022-09-21T00:06:16.810Z,47.30
2022-09-21T00:06:26.802Z,47.30
2022-09-21T00:06:36.799Z,47.30
2022-09-21T00:06:46.797Z,47.30
2022-09-21T00:06:56.798Z,47.39
2022-09-21T00:07:06.793Z,47.39
2022-09-21T00:07:16.798Z,47.30
2022-09-21T00:07:26.791Z,47.39
2022-09-21T00:07:36.797Z,47.39
2022-09-21T00:07:46.802Z,47.30
2022-09-21T00:07:56.791Z,47.30
2022-09-21T00:08:06.788Z,47.30
2022-09-21T00:08:16.788Z,47.19
2022-09-21T00:08:26.783Z,47.30
2022-09-21T00:08:36.792Z,47.30
2022-09-21T00:08:46.781Z,47.39
2022-09-21T00:08:56.783Z,47.30
2022-09-21T00:09:06.779Z,47.19
2022-09-21T00:09:16.783Z,47.30
2022-09-21T00:09:26.776Z,47.30
2022-09-21T00:09:46.776Z,47.30
2022-09-21T00:09:56.780Z,47.30
2022-09-21T00:10:06.775Z,47.39
2022-09-21T00:10:16.774Z,47.30
2022-09-21T00:10:26.777Z,47.19
2022-09-21T00:10:36.774Z,47.19
2022-09-21T00:10:46.767Z,47.30
2022-09-21T00:10:56.775Z,47.19
2022-09-21T00:11:06.764Z,47.19
2022-09-21T00:11:16.767Z,47.19
2022-09-21T00:11:26.764Z,47.19
2022-09-21T00:11:36.764Z,47.30
2022-09-21T00:11:46.761Z,47.19
2022-09-21T00:11:58.351Z,47.19
2022-09-21T00:12:06.758Z,47.19
2022-09-21T00:12:16.763Z,47.19
2022-09-21T00:12:26.764Z,47.19
2022-09-21T00:12:36.795Z,47.30
2022-09-21T00:12:46.758Z,47.19
2022-09-21T00:12:56.774Z,47.19
2022-09-21T00:13:06.760Z,47.30
2022-09-21T00:13:16.771Z,47.30
2022-09-21T00:13:26.750Z,47.30
2022-09-21T00:13:36.749Z,47.30
2022-09-21T00:13:46.860Z,47.30
2022-09-21T00:13:56.786Z,47.30
2022-09-21T00:14:06.832Z,47.30
2022-09-21T00:14:16.743Z,47.30
2022-09-21T00:14:26.744Z,47.30
2022-09-21T00:14:46.741Z,47.30
2022-09-21T00:14:56.741Z,47.30
2022-09-21T00:15:06.736Z,47.30
2022-09-21T00:15:16.736Z,47.19
2022-09-21T00:15:26.733Z,47.19
2022-09-21T00:15:36.741Z,47.19
2022-09-21T00:15:46.735Z,47.19
2022-09-21T00:15:56.739Z,47.19
2022-09-21T00:16:06.735Z,47.30
2022-09-21T00:16:16.750Z,47.30
2022-09-21T00:16:26.760Z,47.19
2022-09-21T00:16:37.119Z,47.19
2022-09-21T00:16:46.782Z,47.19
2022-09-21T00:16:56.750Z,47.30
2022-09-21T00:17:06.722Z,47.30
2022-09-21T00:17:16.724Z,47.39
2022-09-21T00:17:26.719Z,47.39
2022-09-21T00:17:36.733Z,47.39
2022-09-21T00:17:46.739Z,47.30
2022-09-21T00:17:56.719Z,47.30
2022-09-21T00:18:06.718Z,47.19
2022-09-21T00:18:16.718Z,47.09
2022-09-21T00:18:26.725Z,47.19
2022-09-21T00:18:36.718Z,47.19
2022-09-21T00:18:46.710Z,47.19
2022-09-21T00:18:56.714Z,47.19
2022-09-21T00:19:06.955Z,47.19
2022-09-21T00:19:16.714Z,47.19
2022-09-21T00:19:26.708Z,47.19
2022-09-21T00:19:36.712Z,47.19
2022-09-21T00:19:46.704Z,47.19
2022-09-21T00:19:56.707Z,47.19
2022-09-21T00:20:06.703Z,47.09
2022-09-21T00:20:16.704Z,47.09
2022-09-21T00:20:26.699Z,47.09
2022-09-21T00:20:36.704Z,47.09
2022-09-21T00:20:46.701Z,47.09
2022-09-21T00:20:56.698Z,47.09
2022-09-21T00:21:06.696Z,47.09
2022-09-21T00:21:16.701Z,47.09
2022-09-21T00:21:26.693Z,47.09
2022-09-21T00:21:36.696Z,47.09
2022-09-21T00:21:46.692Z,47.00
2022-09-21T00:21:56.694Z,47.00
2022-09-21T00:22:06.691Z,47.00
2022-09-21T00:22:16.696Z,47.00
2022-09-21T00:22:26.689Z,47.00
2022-09-21T00:22:36.689Z,47.00
2022-09-21T00:22:46.690Z,47.09
2022-09-21T00:22:56.696Z,47.09
2022-09-21T00:23:06.691Z,47.09
2022-09-21T00:23:16.685Z,46.97
2022-09-21T00:23:26.681Z,46.89
2022-09-21T00:23:36.680Z,47.00
2022-09-21T00:23:46.679Z,47.00
2022-09-21T00:23:56.678Z,47.00
2022-09-21T00:24:06.708Z,47.00
2022-09-21T00:24:16.674Z,47.00
2022-09-21T00:24:26.676Z,47.00
2022-09-21T00:24:46.677Z,47.00
2022-09-21T00:24:56.672Z,47.00
2022-09-21T00:25:06.669Z,47.00
2022-09-21T00:25:16.666Z,47.09
2022-09-21T00:25:26.674Z,47.09
2022-09-21T00:25:36.665Z,47.09
2022-09-21T00:25:46.666Z,47.09
2022-09-21T00:25:56.665Z,47.09
2022-09-21T00:26:06.664Z,47.09
2022-09-21T00:26:16.662Z,47.09
2022-09-21T00:26:26.662Z,47.09
2022-09-21T00:26:36.661Z,47.07
2022-09-21T00:26:46.659Z,47.07
2022-09-21T00:26:56.657Z,46.97
2022-09-21T00:27:06.658Z,46.89
2022-09-21T00:27:16.651Z,47.00
2022-09-21T00:27:26.653Z,46.87
2022-09-21T00:27:36.655Z,46.89
2022-09-21T00:27:46.654Z,46.89
2022-09-21T00:27:56.649Z,46.80
2022-09-21T00:28:06.650Z,46.80
2022-09-21T00:28:16.688Z,46.80
2022-09-21T00:28:26.657Z,46.80
2022-09-21T00:28:36.649Z,46.80
2022-09-21T00:28:46.653Z,46.80
2022-09-21T00:28:56.674Z,46.89
2022-09-21T00:29:06.642Z,46.80
2022-09-21T00:29:16.666Z,46.89
2022-09-21T00:29:26.644Z,46.80
2022-09-21T00:29:36.639Z,46.80
2022-09-21T00:29:46.638Z,46.80
2022-09-21T00:29:56.635Z,46.89
2022-09-21T00:30:06.636Z,46.89
2022-09-21T00:30:16.679Z,47.00
2022-09-21T00:30:26.646Z,47.00
2022-09-21T00:30:36.669Z,47.00
2022-09-21T00:30:46.643Z,46.89
2022-09-21T00:30:56.640Z,46.89
2022-09-21T00:31:06.643Z,47.00
2022-09-21T00:31:16.674Z,47.00
2022-09-21T00:31:26.717Z,47.00
2022-09-21T00:31:36.706Z,47.00
2022-09-21T00:31:46.675Z,47.09
2022-09-21T00:31:56.668Z,47.09
2022-09-21T00:32:16.620Z,47.09
2022-09-21T00:32:26.623Z,47.09
2022-09-21T00:32:36.616Z,47.09
2022-09-21T00:32:46.619Z,47.09
2022-09-21T00:32:56.622Z,47.09
2022-09-21T00:33:06.616Z,47.09
2022-09-21T00:33:16.614Z,47.09
2022-09-21T00:33:33.138Z,47.00
2022-09-21T00:33:37.800Z,47.00
2022-09-21T00:33:47.824Z,47.09
2022-09-21T00:33:57.799Z,47.09
2022-09-21T00:34:07.994Z,47.09
2022-09-21T00:34:17.796Z,47.00
2022-09-21T00:34:27.799Z,47.00
2022-09-21T00:34:37.794Z,47.00
2022-09-21T00:34:47.794Z,47.00
2022-09-21T00:34:57.792Z,47.09
2022-09-21T00:35:07.798Z,47.00
2022-09-21T00:35:17.790Z,47.00
2022-09-21T00:35:27.788Z,47.00
2022-09-21T00:35:37.801Z,47.00
2022-09-21T00:35:47.789Z,47.00
2022-09-21T00:35:57.785Z,47.00
2022-09-21T00:36:07.785Z,46.89
2022-09-21T00:36:17.783Z,46.80
2022-09-21T00:36:27.823Z,46.89
2022-09-21T00:36:37.780Z,46.89
2022-09-21T00:36:47.781Z,46.89
2022-09-21T00:36:57.777Z,46.89
2022-09-21T00:37:17.776Z,46.89
2022-09-21T00:37:27.781Z,46.80
2022-09-21T00:37:37.772Z,46.80
2022-09-21T00:37:47.779Z,46.80
2022-09-21T00:37:57.772Z,46.80
2022-09-21T00:38:07.772Z,46.80
2022-09-21T00:38:17.770Z,46.80
2022-09-21T00:38:27.770Z,46.80
2022-09-21T00:38:37.767Z,46.80
2022-09-21T00:38:47.783Z,46.80
2022-09-21T00:38:57.763Z,46.80
2022-09-21T00:39:07.765Z,46.89
2022-09-21T00:39:17.775Z,46.89
2022-09-21T00:39:27.764Z,46.89
2022-09-21T00:39:37.761Z,46.92
2022-09-21T00:39:47.762Z,46.92
2022-09-21T00:39:57.755Z,46.89
2022-09-21T00:40:07.833Z,46.92
2022-09-21T00:40:17.789Z,46.92
2022-09-21T00:40:27.808Z,46.92
2022-09-21T00:40:37.770Z,47.02
2022-09-21T00:40:47.752Z,47.00
2022-09-21T00:40:57.752Z,46.92
2022-09-21T00:41:07.755Z,47.02
2022-09-21T00:41:17.748Z,46.92
2022-09-21T00:41:27.764Z,46.89
2022-09-21T00:41:37.746Z,46.92
2022-09-21T00:41:47.748Z,47.00
2022-09-21T00:41:57.741Z,46.92
2022-09-21T00:42:07.746Z,47.00
2022-09-21T00:42:17.744Z,46.92
2022-09-21T00:42:27.745Z,46.92
2022-09-21T00:42:37.748Z,46.92
2022-09-21T00:42:47.743Z,46.92
2022-09-21T00:42:57.738Z,46.92
2022-09-21T00:43:07.737Z,46.92
2022-09-21T00:43:17.738Z,46.92
2022-09-21T00:43:27.736Z,46.92
2022-09-21T00:43:37.733Z,46.89
2022-09-21T00:43:47.736Z,46.89
2022-09-21T00:43:57.734Z,46.92
2022-09-21T00:44:07.732Z,46.92
2022-09-21T00:44:17.728Z,47.02
2022-09-21T00:44:27.732Z,47.02
2022-09-21T00:44:47.729Z,46.92
2022-09-21T00:44:57.730Z,46.81
2022-09-21T00:45:07.727Z,46.81
2022-09-21T00:45:17.722Z,46.92
2022-09-21T00:45:27.745Z,46.89
2022-09-21T00:45:37.768Z,46.92
2022-09-21T00:45:47.758Z,46.92
2022-09-21T00:45:57.756Z,46.92
2022-09-21T00:46:07.750Z,46.92
2022-09-21T00:46:17.728Z,46.92
2022-09-21T00:46:27.716Z,46.92
2022-09-21T00:46:37.712Z,47.02
2022-09-21T00:46:47.711Z,47.02
2022-09-21T00:46:57.711Z,46.89
2022-09-21T00:47:17.717Z,46.92
2022-09-21T00:47:27.710Z,46.92
2022-09-21T00:47:37.706Z,46.92
2022-09-21T00:47:47.718Z,46.92
2022-09-21T00:47:57.703Z,46.92
2022-09-21T00:48:07.705Z,46.81
2022-09-21T00:48:17.701Z,46.81
2022-09-21T00:48:27.705Z,46.92
2022-09-21T00:48:37.697Z,46.92
2022-09-21T00:48:47.703Z,46.92
2022-09-21T00:48:57.699Z,46.92
2022-09-21T00:49:07.797Z,47.02
2022-09-21T00:49:17.695Z,47.02
2022-09-21T00:49:27.699Z,47.02
2022-09-21T00:49:47.697Z,47.02
2022-09-21T00:49:57.689Z,46.92
2022-09-21T00:50:07.712Z,46.92
2022-09-21T00:50:17.693Z,46.92
2022-09-21T00:50:27.691Z,46.81
2022-09-21T00:50:37.685Z,46.81
2022-09-21T00:50:47.687Z,46.81
2022-09-21T00:50:57.684Z,46.81
2022-09-21T00:51:07.690Z,46.81
2022-09-21T00:51:17.682Z,46.81
2022-09-21T00:51:27.681Z,46.92
2022-09-21T00:51:37.680Z,46.92
2022-09-21T00:51:47.683Z,46.92
2022-09-21T00:51:57.681Z,46.92
2022-09-21T00:52:17.712Z,46.81
2022-09-21T00:52:27.719Z,46.81
2022-09-21T00:52:37.672Z,46.81
2022-09-21T00:52:47.675Z,46.81
2022-09-21T00:52:57.671Z,46.81
2022-09-21T00:53:07.673Z,46.81
2022-09-21T00:53:17.668Z,46.72
2022-09-21T00:53:27.669Z,46.72
2022-09-21T00:53:37.672Z,46.81
2022-09-21T00:53:47.667Z,46.81
2022-09-21T00:53:57.670Z,46.92
2022-09-21T00:54:07.668Z,46.92
2022-09-21T00:54:17.678Z,46.92
2022-09-21T00:54:27.667Z,46.81
2022-09-21T00:54:37.660Z,46.81
2022-09-21T00:54:47.664Z,46.81
2022-09-21T00:54:57.661Z,46.92
2022-09-21T00:55:07.657Z,46.81
2022-09-21T00:55:17.676Z,46.81
2022-09-21T00:55:27.653Z,46.80
2022-09-21T00:55:37.651Z,46.89
2022-09-21T00:55:47.654Z,46.89
2022-09-21T00:55:57.647Z,46.89
2022-09-21T00:56:07.651Z,46.89
2022-09-21T00:56:17.645Z,46.89
2022-09-21T00:56:27.649Z,46.80
2022-09-21T00:56:37.642Z,46.80
2022-09-21T00:56:47.645Z,46.80
2022-09-21T00:56:57.639Z,46.80
2022-09-21T00:57:07.645Z,46.80
2022-09-21T00:57:17.640Z,46.80
2022-09-21T00:57:37.642Z,46.69
2022-09-21T00:57:47.642Z,46.69
2022-09-21T00:57:57.635Z,46.69
2022-09-21T00:58:07.637Z,46.69
2022-09-21T00:58:17.633Z,46.69
2022-09-21T00:58:27.636Z,46.59
2022-09-21T00:58:37.661Z,46.59
2022-09-21T00:58:47.643Z,46.59
2022-09-21T00:58:57.627Z,46.59
2022-09-21T00:59:07.633Z,46.69
2022-09-21T00:59:21.403Z,46.69
2022-09-21T00:59:30.293Z,46.80
2022-09-21T00:59:37.624Z,46.69
2022-09-21T00:59:47.625Z,46.69
2022-09-21T01:00:07.622Z,46.59
2022-09-21T01:00:17.619Z,46.59
2022-09-21T01:00:27.635Z,46.61
2022-09-21T01:00:37.726Z,46.61
2022-09-21T01:00:47.668Z,46.72
2022-09-21T01:00:57.653Z,46.61
2022-09-21T01:01:07.688Z,46.72
2022-09-21T01:01:17.652Z,46.61
2022-09-21T01:01:27.662Z,46.72
2022-09-21T01:01:37.612Z,46.72
2022-09-21T01:01:47.631Z,46.61
2022-09-21T01:01:57.651Z,46.61
2022-09-21T01:02:07.649Z,46.59
2022-09-21T01:02:17.649Z,46.61
2022-09-21T01:02:27.663Z,46.61
2022-09-21T01:02:37.603Z,46.61
2022-09-21T01:02:47.610Z,46.61
2022-09-21T01:02:57.601Z,46.61
2022-09-21T01:03:07.604Z,46.61
2022-09-21T01:03:17.599Z,46.61
2022-09-21T01:03:27.600Z,46.72
2022-09-21T01:03:37.596Z,46.72
2022-09-21T01:03:47.602Z,46.72
2022-09-21T01:03:57.595Z,46.61
2022-09-21T01:04:07.593Z,46.61
2022-09-21T01:04:17.592Z,46.61
2022-09-21T01:04:27.593Z,46.61
2022-09-21T01:04:37.595Z,46.61
2022-09-21T01:04:47.593Z,46.72
2022-09-21T01:05:07.588Z,46.61
2022-09-21T01:05:17.584Z,46.61
2022-09-21T01:05:27.601Z,46.61
2022-09-21T01:05:37.582Z,46.51
2022-09-21T01:05:47.584Z,46.61
2022-09-21T01:05:57.580Z,46.61
2022-09-21T01:06:07.582Z,46.61
2022-09-21T01:06:17.579Z,46.61
2022-09-21T01:06:27.581Z,46.61
2022-09-21T01:06:37.595Z,46.61
2022-09-21T01:06:47.574Z,46.72
2022-09-21T01:06:57.578Z,46.72
2022-09-21T01:07:07.571Z,46.61
2022-09-21T01:07:17.574Z,46.61
2022-09-21T01:07:37.571Z,46.61
2022-09-21T01:07:47.568Z,46.61
2022-09-21T01:07:57.570Z,46.61
2022-09-21T01:08:07.565Z,46.61
2022-09-21T01:08:17.569Z,46.61
2022-09-21T01:08:27.567Z,46.72
2022-09-21T01:08:37.565Z,46.72
2022-09-21T01:08:47.560Z,46.61
2022-09-21T01:08:57.563Z,46.72
2022-09-21T01:09:07.555Z,46.72
2022-09-21T01:09:17.561Z,46.72
2022-09-21T01:09:27.566Z,46.72
2022-09-21T01:09:37.560Z,46.61
2022-09-21T01:09:47.555Z,46.61
2022-09-21T01:10:07.552Z,46.61
2022-09-21T01:10:17.552Z,46.61
2022-09-21T01:10:27.562Z,46.61
2022-09-21T01:10:37.550Z,46.61
2022-09-21T01:10:47.546Z,46.61
2022-09-21T01:10:57.548Z,46.61
2022-09-21T01:11:07.544Z,46.61
2022-09-21T01:11:17.544Z,46.61
2022-09-21T01:11:27.542Z,46.61
2022-09-21T01:11:37.544Z,46.61
2022-09-21T01:11:47.543Z,46.61
2022-09-21T01:11:57.542Z,46.61
2022-09-21T01:12:07.546Z,46.61
2022-09-21T01:12:17.559Z,46.61
2022-09-21T01:12:27.535Z,46.61
2022-09-21T01:12:37.537Z,46.61
2022-09-21T01:12:57.539Z,46.51
2022-09-21T01:13:07.536Z,46.61
2022-09-21T01:13:17.534Z,46.61
2022-09-21T01:13:27.529Z,46.51
2022-09-21T01:13:37.531Z,46.51
2022-09-21T01:13:47.529Z,46.64
2022-09-21T01:13:57.528Z,46.54
2022-09-21T01:14:08.056Z,46.54
2022-09-21T01:14:17.526Z,46.54
2022-09-21T01:14:27.530Z,46.54
2022-09-21T01:14:37.522Z,46.54
2022-09-21T01:14:47.519Z,46.54
2022-09-21T01:14:57.528Z,46.54
2022-09-21T01:15:07.524Z,46.54
2022-09-21T01:15:17.519Z,46.54
2022-09-21T01:15:27.515Z,46.54
2022-09-21T01:15:37.518Z,46.64
2022-09-21T01:15:47.513Z,46.64
2022-09-21T01:15:57.558Z,46.64
2022-09-21T01:16:07.546Z,46.54
2022-09-21T01:16:17.526Z,46.54
2022-09-21T01:16:27.565Z,46.54
2022-09-21T01:16:37.523Z,46.64
2022-09-21T01:16:47.519Z,46.64
2022-09-21T01:16:57.520Z,46.64
2022-09-21T01:17:07.521Z,46.64
2022-09-21T01:17:17.532Z,46.64
2022-09-21T01:17:27.539Z,46.64
2022-09-21T01:17:37.525Z,46.64
2022-09-21T01:17:47.516Z,46.64
2022-09-21T01:17:57.524Z,46.64
2022-09-21T01:18:07.520Z,46.64
2022-09-21T01:18:17.510Z,46.64
2022-09-21T01:18:27.517Z,46.61
2022-09-21T01:18:37.511Z,46.51
2022-09-21T01:18:47.514Z,46.54
2022-09-21T01:18:57.505Z,46.41
2022-09-21T01:19:07.507Z,46.51
2022-09-21T01:19:17.527Z,46.51
2022-09-21T01:19:27.497Z,46.44
2022-09-21T01:19:37.521Z,46.51
2022-09-21T01:19:47.503Z,46.54
2022-09-21T01:19:57.496Z,46.44
2022-09-21T01:20:07.509Z,46.54
2022-09-21T01:20:17.507Z,46.54
2022-09-21T01:20:27.482Z,46.44
2022-09-21T01:20:37.500Z,46.44
2022-09-21T01:20:47.536Z,46.44
2022-09-21T01:20:57.489Z,46.44
2022-09-21T01:21:07.506Z,46.44
2022-09-21T01:21:17.526Z,46.44
2022-09-21T01:21:27.473Z,46.34
2022-09-21T01:21:37.492Z,46.34
2022-09-21T01:21:47.492Z,46.44
2022-09-21T01:21:57.484Z,46.44
2022-09-21T01:22:07.488Z,46.34
2022-09-21T01:22:17.507Z,46.34
2022-09-21T01:22:27.479Z,46.34
2022-09-21T01:22:37.499Z,46.44
2022-09-21T01:22:47.486Z,46.44
2022-09-21T01:22:57.471Z,46.44
2022-09-21T01:23:07.523Z,46.44
2022-09-21T01:23:17.466Z,46.44
2022-09-21T01:23:27.485Z,46.44
2022-09-21T01:23:37.681Z,46.44
2022-09-21T01:23:47.486Z,46.44
2022-09-21T01:23:57.468Z,46.44
2022-09-21T01:24:07.467Z,46.34
2022-09-21T01:24:17.466Z,46.44
2022-09-21T01:24:27.469Z,46.44
2022-09-21T01:24:37.476Z,46.44
2022-09-21T01:24:47.466Z,46.44
2022-09-21T01:24:57.468Z,46.44
2022-09-21T01:25:07.458Z,46.54
2022-09-21T01:25:17.474Z,46.51
2022-09-21T01:25:27.455Z,46.61
2022-09-21T01:25:37.464Z,46.61
2022-09-21T01:25:47.471Z,46.61
2022-09-21T01:25:57.447Z,46.61
2022-09-21T01:26:07.458Z,46.61
2022-09-21T01:26:17.478Z,46.61
2022-09-21T01:26:27.440Z,46.51
2022-09-21T01:26:37.451Z,46.51
2022-09-21T01:26:47.450Z,46.61
2022-09-21T01:26:57.451Z,46.51
2022-09-21T01:27:07.457Z,46.41
2022-09-21T01:27:17.466Z,46.31
2022-09-21T01:27:27.445Z,46.31
2022-09-21T01:27:37.452Z,46.31
2022-09-21T01:27:47.451Z,46.41
2022-09-21T01:27:57.440Z,46.31
2022-09-21T01:28:07.467Z,46.31
2022-09-21T01:28:17.436Z,46.31
2022-09-21T01:28:27.426Z,46.31
2022-09-21T01:28:37.426Z,46.31
2022-09-21T01:28:47.440Z,46.31
2022-09-21T01:28:57.425Z,46.31
2022-09-21T01:29:07.424Z,46.31
2022-09-21T01:29:17.425Z,46.22
2022-09-21T01:29:27.421Z,46.31
2022-09-21T01:29:37.421Z,46.22
2022-09-21T01:29:47.422Z,46.22
2022-09-21T01:29:57.420Z,46.11
2022-09-21T01:30:07.414Z,46.11
2022-09-21T01:30:27.420Z,46.22
2022-09-21T01:30:37.414Z,46.22
2022-09-21T01:30:49.150Z,46.22
2022-09-21T01:30:57.413Z,46.22
2022-09-21T01:31:07.533Z,46.31
2022-09-21T01:31:17.499Z,46.31
2022-09-21T01:31:27.465Z,46.31
2022-09-21T01:31:37.436Z,46.31
2022-09-21T01:31:47.470Z,46.22
2022-09-21T01:31:57.405Z,46.22
2022-09-21T01:32:07.415Z,46.22
2022-09-21T01:32:17.407Z,46.22
2022-09-21T01:32:27.398Z,46.22
2022-09-21T01:32:37.402Z,46.22
2022-09-21T01:32:57.399Z,46.11
2022-09-21T01:33:07.398Z,46.22
2022-09-21T01:33:17.397Z,46.22
2022-09-21T01:33:27.393Z,46.22
2022-09-21T01:33:37.395Z,46.22
2022-09-21T01:33:47.391Z,46.22
2022-09-21T01:33:57.394Z,46.31
2022-09-21T01:34:07.515Z,46.31
2022-09-21T01:34:17.392Z,46.31
2022-09-21T01:34:27.386Z,46.22
2022-09-21T01:34:37.392Z,46.11
2022-09-21T01:34:47.385Z,46.22
2022-09-21T01:34:57.387Z,46.22
2022-09-21T01:35:07.400Z,46.31
2022-09-21T01:35:17.382Z,46.22
2022-09-21T01:35:37.383Z,46.11
2022-09-21T01:35:47.378Z,46.11
2022-09-21T01:35:57.381Z,46.22
2022-09-21T01:36:07.375Z,46.31
2022-09-21T01:36:17.376Z,46.31
2022-09-21T01:36:27.374Z,46.31
2022-09-21T01:36:37.376Z,46.31
2022-09-21T01:36:47.371Z,46.31
2022-09-21T01:36:57.379Z,46.31
2022-09-21T01:37:07.369Z,46.31
2022-09-21T01:37:17.369Z,46.31
2022-09-21T01:37:27.367Z,46.22
2022-09-21T01:37:37.367Z,46.22
2022-09-21T01:37:47.364Z,46.22
2022-09-21T01:37:57.367Z,46.11
2022-09-21T01:38:07.363Z,46.11
2022-09-21T01:38:17.363Z,46.11
2022-09-21T01:38:27.365Z,46.11
2022-09-21T01:38:37.367Z,46.22
2022-09-21T01:38:47.358Z,46.22
2022-09-21T01:38:57.360Z,46.11
2022-09-21T01:39:07.356Z,46.11
2022-09-21T01:39:17.369Z,46.11
2022-09-21T01:39:27.353Z,46.11
2022-09-21T01:39:37.354Z,46.22
2022-09-21T01:39:47.350Z,46.22
2022-09-21T01:39:57.350Z,46.22
2022-09-21T01:40:07.390Z,46.11
2022-09-21T01:40:17.393Z,46.11
2022-09-21T01:40:29.962Z,46.11
2022-09-21T01:40:37.704Z,46.22
2022-09-21T01:40:57.347Z,46.11
2022-09-21T01:41:07.341Z,46.11
2022-09-21T01:41:17.344Z,46.11
2022-09-21T01:41:27.339Z,46.11
2022-09-21T01:41:37.342Z,46.11
2022-09-21T01:41:47.337Z,46.11
2022-09-21T01:41:57.337Z,46.01
2022-09-21T01:42:07.334Z,46.11
2022-09-21T01:42:17.335Z,46.11
2022-09-21T01:42:27.332Z,46.22
2022-09-21T01:42:37.354Z,46.11
2022-09-21T01:42:47.336Z,46.11
2022-09-21T01:42:57.334Z,46.11
2022-09-21T01:43:07.328Z,46.11
2022-09-21T01:43:17.330Z,46.11
2022-09-21T01:43:27.324Z,46.22
2022-09-21T01:43:37.330Z,46.31
2022-09-21T01:43:47.324Z,46.22
2022-09-21T01:43:57.326Z,46.22
2022-09-21T01:44:07.327Z,46.22
2022-09-21T01:44:17.323Z,46.11
2022-09-21T01:44:27.324Z,46.22
2022-09-21T01:44:37.318Z,46.22
2022-09-21T01:44:47.317Z,46.31
2022-09-21T01:44:57.319Z,46.22
2022-09-21T01:45:07.321Z,46.22
2022-09-21T01:45:17.317Z,46.11
2022-09-21T01:45:27.333Z,46.22
2022-09-21T01:45:37.373Z,46.31
2022-09-21T01:45:47.326Z,46.22
2022-09-21T01:45:57.406Z,46.31
2022-09-21T01:46:07.366Z,46.22
2022-09-21T01:46:17.314Z,46.22
2022-09-21T01:46:27.305Z,46.31
2022-09-21T01:46:37.321Z,46.22
2022-09-21T01:46:47.305Z,46.22
2022-09-21T01:46:57.304Z,46.22
2022-09-21T01:47:07.308Z,46.11
2022-09-21T01:47:17.311Z,46.11
2022-09-21T01:47:27.298Z,46.11
2022-09-21T01:47:37.300Z,46.11
2022-09-21T01:47:47.317Z,46.22
2022-09-21T01:47:57.300Z,46.11
2022-09-21T01:48:07.293Z,46.11
2022-09-21T01:48:17.297Z,46.01
2022-09-21T01:48:37.299Z,46.11
2022-09-21T01:48:47.312Z,46.11
2022-09-21T01:48:57.336Z,46.11
2022-09-21T01:49:07.489Z,46.22
2022-09-21T01:49:17.286Z,46.11
2022-09-21T01:49:27.288Z,46.11
2022-09-21T01:49:37.285Z,46.11
2022-09-21T01:49:47.286Z,46.11
2022-09-21T01:49:57.280Z,46.01
2022-09-21T01:50:07.285Z,46.11
2022-09-21T01:50:17.277Z,46.11
2022-09-21T01:50:27.280Z,46.11
2022-09-21T01:50:37.274Z,46.11
2022-09-21T01:50:47.281Z,46.11
2022-09-21T01:51:07.274Z,46.11
2022-09-21T01:51:17.277Z,46.11
2022-09-21T01:51:27.278Z,46.11
2022-09-21T01:51:37.273Z,46.01
2022-09-21T01:51:47.277Z,45.91
2022-09-21T01:51:57.284Z,46.01
2022-09-21T01:52:07.271Z,46.01
2022-09-21T01:52:17.266Z,46.01
2022-09-21T01:52:27.266Z,45.91
2022-09-21T01:52:37.263Z,46.01
2022-09-21T01:52:47.265Z,46.01
2022-09-21T01:52:57.260Z,46.01
2022-09-21T01:53:07.261Z,46.01
2022-09-21T01:53:17.256Z,46.01
2022-09-21T01:53:37.255Z,45.91
2022-09-21T01:53:47.258Z,46.01
2022-09-21T01:53:57.253Z,46.01
2022-09-21T01:54:07.256Z,46.01
2022-09-21T01:54:17.252Z,46.01
2022-09-21T01:54:27.255Z,45.81
2022-09-21T01:54:37.254Z,45.81
2022-09-21T01:54:47.252Z,45.81
2022-09-21T01:54:57.248Z,45.81
2022-09-21T01:55:07.248Z,45.91
2022-09-21T01:55:17.247Z,45.91
2022-09-21T01:55:27.246Z,45.91
2022-09-21T01:55:37.242Z,45.91
2022-09-21T01:55:47.247Z,45.91
2022-09-21T01:55:57.241Z,45.91
2022-09-21T01:56:07.245Z,45.91
2022-09-21T01:56:17.240Z,46.01
2022-09-21T01:56:27.241Z,46.01
2022-09-21T01:56:37.235Z,46.01
2022-09-21T01:56:47.238Z,46.01
2022-09-21T01:56:57.234Z,46.11
2022-09-21T01:57:07.248Z,46.01
2022-09-21T01:57:17.237Z,46.01
2022-09-21T01:57:27.233Z,46.01
2022-09-21T01:57:37.230Z,46.01
2022-09-21T01:57:47.232Z,46.01
2022-09-21T01:57:57.228Z,46.01
2022-09-21T01:58:07.228Z,46.01
2022-09-21T01:58:17.225Z,46.01
2022-09-21T01:58:27.226Z,46.11
2022-09-21T01:58:37.220Z,46.01
2022-09-21T01:58:47.224Z,46.01
2022-09-21T01:58:57.275Z,46.01
2022-09-21T01:59:07.219Z,46.01
2022-09-21T01:59:17.218Z,46.11
2022-09-21T01:59:27.219Z,46.22
2022-09-21T01:59:37.219Z,46.11
2022-09-21T01:59:47.216Z,46.01
2022-09-21T01:59:57.240Z,46.01
2022-09-21T02:00:07.215Z,46.01
2022-09-21T02:00:17.211Z,46.11
2022-09-21T02:00:27.220Z,46.01
2022-09-21T02:00:37.222Z,46.01
2022-09-21T02:00:47.240Z,46.01
2022-09-21T02:00:57.223Z,45.91
2022-09-21T02:01:07.355Z,45.91
2022-09-21T02:01:17.204Z,45.91
2022-09-21T02:01:37.258Z,45.91
2022-09-21T02:01:47.222Z,45.91
2022-09-21T02:01:57.209Z,45.91
2022-09-21T02:02:07.253Z,46.01
2022-09-21T02:02:17.227Z,46.01
2022-09-21T02:02:27.199Z,45.81
2022-09-21T02:02:37.198Z,45.81
2022-09-21T02:02:47.196Z,45.91
2022-09-21T02:02:57.192Z,45.91
2022-09-21T02:03:07.195Z,46.01
2022-09-21T02:03:17.192Z,45.91
2022-09-21T02:03:27.196Z,45.91
2022-09-21T02:03:37.195Z,45.91
2022-09-21T02:03:47.191Z,45.91
2022-09-21T02:03:57.186Z,45.91
2022-09-21T02:04:07.332Z,46.01
2022-09-21T02:04:17.184Z,46.01
2022-09-21T02:04:27.186Z,46.01
2022-09-21T02:04:37.183Z,45.91
2022-09-21T02:04:47.184Z,45.91
2022-09-21T02:04:57.183Z,45.91
2022-09-21T02:05:07.200Z,45.91
2022-09-21T02:05:17.177Z,45.91
2022-09-21T02:05:27.188Z,45.91
2022-09-21T02:05:37.175Z,46.01
2022-09-21T02:05:47.178Z,45.91
2022-09-21T02:05:57.175Z,45.91
2022-09-21T02:06:07.176Z,45.91
2022-09-21T02:06:17.171Z,46.01
2022-09-21T02:06:27.181Z,45.91
2022-09-21T02:06:37.170Z,45.91
2022-09-21T02:06:47.172Z,46.01
2022-09-21T02:06:57.175Z,45.81
2022-09-21T02:07:07.165Z,45.81
2022-09-21T02:07:17.163Z,45.91
2022-09-21T02:07:27.165Z,45.91
2022-09-21T02:07:37.166Z,45.91
2022-09-21T02:07:47.174Z,45.91
2022-09-21T02:07:57.159Z,45.81
2022-09-21T02:08:07.161Z,45.91
2022-09-21T02:08:17.156Z,45.91
2022-09-21T02:08:27.159Z,45.91
2022-09-21T02:08:37.153Z,46.01
2022-09-21T02:08:47.159Z,46.01
2022-09-21T02:08:57.152Z,45.91
2022-09-21T02:09:07.157Z,45.91
2022-09-21T02:09:17.152Z,45.91
2022-09-21T02:09:27.153Z,45.91
2022-09-21T02:09:37.147Z,45.81
2022-09-21T02:09:47.149Z,45.81
2022-09-21T02:09:57.145Z,45.71
2022-09-21T02:10:07.147Z,45.81
2022-09-21T02:10:17.143Z,45.81
2022-09-21T02:10:27.144Z,45.81
2022-09-21T02:10:37.142Z,45.81
2022-09-21T02:10:47.144Z,45.81
2022-09-21T02:10:57.139Z,45.71
2022-09-21T02:11:07.142Z,45.81
2022-09-21T02:11:17.136Z,45.81
2022-09-21T02:11:27.136Z,45.81
2022-09-21T02:11:37.149Z,45.81
2022-09-21T02:11:47.138Z,45.91
2022-09-21T02:11:57.130Z,45.81
2022-09-21T02:12:07.131Z,45.81
2022-09-21T02:12:19.311Z,45.81
2022-09-21T02:12:27.141Z,45.81
2022-09-21T02:12:37.126Z,45.81
2022-09-21T02:12:47.130Z,45.81